createdAt,value
2018-12-21T00:01:01.431Z,87.12
2018-12-21T00:03:34.853Z,86.74
2018-12-21T00:06:08.630Z,86.67
2018-12-21T00:08:42.718Z,86.58
2018-12-21T00:11:16.755Z,86.38
2018-12-21T00:13:50.385Z,86.44
2018-12-21T00:16:23.331Z,86.12
2018-12-21T00:18:56.537Z,86.15
2018-12-21T00:21:29.788Z,86.31
2018-12-21T00:24:03.356Z,86.37
2018-12-21T00:26:36.148Z,86.67
2018-12-21T00:29:08.774Z,86.83
2018-12-21T00:31:47.184Z,86.50
2018-12-21T00:34:25.214Z,86.60
2018-12-21T00:37:03.565Z,86.79
2018-12-21T00:39:42.079Z,86.77
2018-12-21T00:42:34.159Z,86.69
2018-12-21T00:45:14.897Z,86.45
2018-12-21T00:47:49.358Z,86.22
2018-12-21T00:53:33.247Z,85.57
2018-12-21T00:56:06.622Z,85.23
2018-12-21T00:58:42.289Z,85.28
2018-12-21T01:01:14.886Z,84.88
2018-12-21T01:03:48.053Z,84.62
2018-12-21T01:06:23.479Z,84.70
2018-12-21T01:08:57.361Z,84.46
2018-12-21T01:11:30.924Z,84.08
2018-12-21T01:14:03.963Z,83.46
2018-12-21T01:16:36.653Z,83.26
2018-12-21T01:19:11.069Z,83.14
2018-12-21T01:21:50.694Z,83.38
2018-12-21T01:24:23.456Z,83.27
2018-12-21T01:26:55.964Z,83.22
2018-12-21T01:29:29.040Z,83.14
2018-12-21T01:32:01.544Z,83.24
2018-12-21T01:34:34.157Z,83.35
2018-12-21T01:37:07.353Z,83.21
2018-12-21T01:39:41.757Z,83.38
2018-12-21T01:42:15.127Z,83.27
2018-12-21T01:44:48.324Z,83.20
2018-12-21T01:47:20.940Z,83.20
2018-12-21T01:49:53.907Z,83.17
2018-12-21T01:52:28.955Z,83.16
2018-12-21T01:55:01.704Z,83.32
2018-12-21T01:57:34.263Z,83.34
2018-12-21T02:00:08.960Z,83.13
2018-12-21T02:02:41.605Z,82.88
2018-12-21T02:05:15.636Z,83.04
2018-12-21T02:07:49.639Z,83.21
2018-12-21T02:10:22.689Z,83.19
2018-12-21T02:12:56.029Z,83.30
2018-12-21T02:15:31.471Z,83.11
2018-12-21T02:18:04.071Z,83.18
2018-12-21T02:20:36.754Z,83.24
2018-12-21T02:23:11.060Z,83.05
2018-12-21T02:25:44.624Z,82.93
2018-12-21T02:28:17.187Z,82.70
2018-12-21T02:30:52.948Z,82.64
2018-12-21T02:33:26.211Z,82.87
2018-12-21T02:35:59.732Z,82.89
2018-12-21T02:38:34.756Z,82.84
2018-12-21T02:41:07.364Z,82.99
2018-12-21T02:43:48.029Z,82.94
2018-12-21T02:46:20.551Z,82.94
2018-12-21T02:48:54.101Z,82.90
2018-12-21T02:51:28.078Z,83.00
2018-12-21T02:54:00.632Z,82.94
2018-12-21T02:56:33.926Z,82.93
2018-12-21T02:59:07.477Z,82.88
2018-12-21T03:01:40.057Z,82.89
2018-12-21T03:04:12.642Z,82.98
2018-12-21T03:06:45.684Z,82.98
2018-12-21T03:09:18.201Z,83.00
2018-12-21T03:11:50.799Z,82.85
2018-12-21T03:14:24.837Z,82.74
2018-12-21T03:16:57.633Z,82.79
2018-12-21T03:19:31.415Z,82.88
2018-12-21T03:22:14.248Z,83.06
2018-12-21T03:24:47.612Z,83.35
2018-12-21T03:27:20.360Z,83.74
2018-12-21T03:29:54.352Z,84.42
2018-12-21T03:32:27.086Z,85.08
2018-12-21T03:35:00.682Z,85.56
2018-12-21T03:37:33.899Z,86.75
2018-12-21T03:40:07.619Z,87.41
2018-12-21T03:42:41.560Z,87.67
2018-12-21T03:45:17.226Z,88.10
2018-12-21T03:47:49.763Z,88.94
2018-12-21T03:50:22.445Z,89.10
2018-12-21T03:52:55.495Z,89.35
2018-12-21T03:55:27.996Z,89.46
2018-12-21T03:58:01.907Z,89.62
2018-12-21T04:00:36.113Z,89.60
2018-12-21T04:03:09.727Z,89.43
2018-12-21T04:05:42.244Z,89.21
2018-12-21T04:08:15.285Z,88.73
2018-12-21T04:10:47.821Z,88.44
2018-12-21T04:13:20.443Z,88.21
2018-12-21T04:15:55.625Z,87.99
2018-12-21T04:18:28.256Z,87.63
2018-12-21T04:21:02.431Z,87.23
2018-12-21T04:23:35.398Z,87.10
2018-12-21T04:26:08.235Z,86.65
2018-12-21T04:28:42.579Z,86.81
2018-12-21T04:31:15.457Z,87.37
2018-12-21T04:33:48.847Z,88.45
2018-12-21T04:36:22.591Z,89.56
2018-12-21T04:38:56.357Z,90.36
2018-12-21T04:41:29.570Z,91.86
2018-12-21T04:44:02.892Z,92.38
2018-12-21T04:46:35.818Z,93.00
2018-12-21T04:49:09.589Z,93.43
2018-12-21T04:51:42.188Z,93.89
2018-12-21T04:54:15.476Z,94.18
2018-12-21T04:56:48.404Z,94.44
2018-12-21T04:59:21.726Z,94.95
2018-12-21T05:01:56.806Z,95.44
2018-12-21T05:04:29.499Z,95.62
2018-12-21T05:07:02.222Z,95.86
2018-12-21T05:09:36.141Z,96.00
2018-12-21T05:12:08.789Z,96.43
2018-12-21T05:14:41.939Z,96.60
2018-12-21T05:17:16.139Z,96.87
2018-12-21T05:19:49.258Z,97.16
2018-12-21T05:22:21.971Z,97.28
2018-12-21T05:24:54.823Z,97.51
2018-12-21T05:27:27.428Z,97.72
2018-12-21T05:30:00.047Z,97.82
2018-12-21T05:32:34.071Z,98.11
2018-12-21T05:35:10.514Z,98.44
2018-12-21T05:37:44.527Z,98.46
2018-12-21T05:40:17.125Z,98.57
2018-12-21T05:42:50.089Z,98.61
2018-12-21T05:45:22.624Z,98.70
2018-12-21T05:47:56.217Z,98.85
2018-12-21T05:50:28.827Z,98.87
2018-12-21T05:53:03.289Z,99.09
2018-12-21T05:55:36.002Z,99.16
2018-12-21T05:58:08.793Z,99.33
2018-12-21T06:00:43.707Z,99.47
2018-12-21T06:03:16.312Z,99.54
2018-12-21T06:05:49.035Z,99.65
2018-12-21T06:08:23.101Z,99.72
2018-12-21T06:10:55.768Z,99.76
2018-12-21T06:13:28.668Z,99.83
2018-12-21T06:16:01.562Z,99.82
2018-12-21T06:18:34.205Z,99.81
2018-12-21T06:21:06.940Z,99.80
2018-12-21T06:23:40.575Z,99.82
2018-12-21T06:26:14.829Z,99.74
2018-12-21T06:28:47.963Z,99.70
2018-12-21T06:31:23.386Z,99.67
2018-12-21T06:33:55.995Z,99.60
2018-12-21T06:36:28.592Z,99.59
2018-12-21T06:39:04.750Z,99.66
2018-12-21T06:41:40.115Z,99.79
2018-12-21T06:44:13.739Z,99.79
2018-12-21T06:46:48.501Z,99.88
2018-12-21T06:49:22.161Z,99.87
2018-12-21T06:51:54.899Z,99.82
2018-12-21T06:54:30.533Z,99.86
2018-12-21T06:57:03.108Z,99.96
2018-12-21T06:59:35.667Z,99.98
2018-12-21T07:02:09.344Z,100.00
2018-12-21T07:04:41.863Z,100.00
2018-12-21T07:07:16.396Z,100.00
2018-12-21T07:09:55.110Z,100.00
2018-12-21T07:12:33.556Z,100.00
2018-12-21T07:15:08.867Z,100.00
2018-12-21T07:17:42.202Z,100.00
2018-12-21T07:20:15.168Z,100.00
2018-12-21T07:22:47.974Z,100.00
2018-12-21T07:25:20.666Z,100.00
2018-12-21T07:27:53.893Z,100.00
2018-12-21T07:30:27.410Z,100.00
2018-12-21T07:33:00.204Z,100.00
2018-12-21T07:35:33.676Z,100.00
2018-12-21T07:38:06.669Z,100.00
2018-12-21T07:40:39.744Z,100.00
2018-12-21T07:43:13.235Z,100.00
2018-12-21T07:45:50.828Z,100.00
2018-12-21T07:48:28.218Z,100.00
2018-12-21T07:51:05.141Z,100.00
2018-12-21T07:53:38.201Z,100.00
2018-12-21T07:56:12.721Z,100.00
2018-12-21T07:58:45.720Z,100.00
2018-12-21T08:01:20.252Z,100.00
2018-12-21T08:03:53.692Z,100.00
2018-12-21T08:06:30.040Z,100.00
2018-12-21T08:09:04.328Z,100.00
2018-12-21T08:11:38.845Z,100.00
2018-12-21T08:14:12.699Z,100.00
2018-12-21T08:16:45.545Z,100.00
2018-12-21T08:19:19.187Z,100.00
2018-12-21T08:21:53.340Z,100.00
2018-12-21T08:24:26.661Z,100.00
2018-12-21T08:27:01.716Z,100.00
2018-12-21T08:29:34.825Z,100.00
2018-12-21T08:32:07.765Z,100.00
2018-12-21T08:34:47.206Z,100.00
2018-12-21T08:37:20.085Z,100.00
2018-12-21T08:39:53.760Z,100.00
2018-12-21T08:42:26.713Z,100.00
2018-12-21T08:44:59.740Z,100.00
2018-12-21T08:47:34.690Z,100.00
2018-12-21T08:50:10.991Z,100.00
2018-12-21T08:52:43.792Z,100.00
2018-12-21T08:55:17.280Z,100.00
2018-12-21T08:57:51.240Z,100.00
2018-12-21T09:00:25.999Z,100.00
2018-12-21T09:02:59.614Z,100.00
2018-12-21T09:05:35.081Z,100.00
2018-12-21T09:08:09.639Z,100.00
2018-12-21T09:10:44.779Z,100.00
2018-12-21T09:13:21.888Z,100.00
2018-12-21T09:15:56.561Z,100.00
2018-12-21T09:18:31.510Z,100.00
2018-12-21T09:21:05.665Z,100.00
2018-12-21T09:23:39.372Z,100.00
2018-12-21T09:26:14.920Z,100.00
2018-12-21T09:28:47.805Z,100.00
2018-12-21T09:31:21.734Z,100.00
2018-12-21T09:33:56.970Z,100.00
2018-12-21T09:36:34.388Z,100.00
2018-12-21T09:39:12.425Z,100.00
2018-12-21T09:41:49.336Z,100.00
2018-12-21T09:44:23.235Z,100.00
2018-12-21T09:46:59.067Z,100.00
2018-12-21T09:49:37.110Z,100.00
2018-12-21T09:52:10.176Z,100.00
2018-12-21T09:54:44.184Z,100.00
2018-12-21T09:57:19.561Z,100.00
2018-12-21T09:59:52.688Z,100.00
2018-12-21T10:02:35.529Z,100.00
2018-12-21T10:05:15.457Z,100.00
2018-12-21T10:07:48.548Z,100.00
2018-12-21T10:10:24.072Z,100.00
2018-12-21T10:12:58.641Z,100.00
2018-12-21T10:15:31.726Z,100.00
2018-12-21T10:18:06.022Z,100.00
2018-12-21T10:20:39.730Z,100.00
2018-12-21T10:23:13.559Z,100.00
2018-12-21T10:25:47.136Z,100.00
2018-12-21T10:28:23.399Z,100.00
2018-12-21T10:31:00.038Z,100.00
2018-12-21T10:33:37.911Z,100.00
2018-12-21T10:36:11.168Z,100.00
2018-12-21T10:38:44.780Z,100.00
2018-12-21T10:41:18.564Z,100.00
2018-12-21T10:43:57.851Z,100.00
2018-12-21T10:46:31.910Z,100.00
2018-12-21T10:49:05.134Z,100.00
2018-12-21T10:51:38.057Z,100.00
2018-12-21T10:54:14.993Z,100.00
2018-12-21T10:56:50.933Z,100.00
2018-12-21T10:59:25.035Z,100.00
2018-12-21T11:01:58.985Z,100.00
2018-12-21T11:04:32.036Z,100.00
2018-12-21T11:07:07.119Z,100.00
2018-12-21T11:09:41.629Z,100.00
2018-12-21T11:12:16.133Z,100.00
2018-12-21T11:14:49.903Z,100.00
2018-12-21T11:17:43.915Z,100.00
2018-12-21T11:20:17.986Z,100.00
2018-12-21T11:22:51.019Z,100.00
2018-12-21T11:25:25.006Z,100.00
2018-12-21T11:27:58.276Z,100.00
2018-12-21T11:30:31.231Z,100.00
2018-12-21T11:33:04.781Z,100.00
2018-12-21T11:35:37.882Z,100.00
2018-12-21T11:38:11.812Z,100.00
2018-12-21T11:40:46.498Z,100.00
2018-12-21T11:43:20.333Z,100.00
2018-12-21T11:45:56.860Z,100.00
2018-12-21T11:48:34.752Z,100.00
2018-12-21T11:51:07.892Z,100.00
2018-12-21T11:53:44.079Z,100.00
2018-12-21T11:56:17.312Z,100.00
2018-12-21T11:58:51.768Z,100.00
2018-12-21T12:01:25.744Z,100.00
2018-12-21T12:03:59.123Z,99.90
2018-12-21T12:06:32.317Z,100.00
2018-12-21T12:09:07.732Z,100.00
2018-12-21T12:11:43.293Z,100.00
2018-12-21T12:14:18.942Z,100.00
2018-12-21T12:16:54.047Z,100.00
2018-12-21T12:19:28.227Z,100.00
2018-12-21T12:22:01.752Z,100.00
2018-12-21T12:24:35.525Z,99.45
2018-12-21T12:27:10.017Z,99.07
2018-12-21T12:29:46.375Z,99.04
2018-12-21T12:32:20.928Z,98.60
2018-12-21T12:34:55.528Z,97.94
2018-12-21T12:37:29.616Z,98.11
2018-12-21T12:40:06.897Z,98.61
2018-12-21T12:42:42.122Z,98.88
2018-12-21T12:45:17.847Z,99.28
2018-12-21T12:48:00.123Z,99.76
2018-12-21T12:50:35.308Z,100.00
2018-12-21T12:53:10.854Z,100.00
2018-12-21T12:55:47.092Z,100.00
2018-12-21T12:58:20.815Z,99.87
2018-12-21T13:00:54.711Z,99.08
2018-12-21T13:03:31.641Z,98.68
2018-12-21T13:06:07.505Z,97.92
2018-12-21T13:08:40.579Z,97.41
2018-12-21T13:11:16.037Z,96.05
2018-12-21T13:13:49.228Z,95.42
2018-12-21T13:16:23.270Z,94.45
2018-12-21T13:18:57.955Z,94.11
2018-12-21T13:21:30.987Z,93.24
2018-12-21T13:24:04.064Z,91.30
2018-12-21T13:26:38.958Z,90.03
2018-12-21T13:29:12.918Z,89.86
2018-12-21T13:31:46.823Z,89.71
2018-12-21T13:34:21.244Z,89.67
2018-12-21T13:37:16.138Z,89.52
2018-12-21T13:39:51.003Z,88.85
2018-12-21T13:42:29.180Z,88.55
2018-12-21T13:45:04.678Z,86.92
2018-12-21T13:47:42.575Z,87.12
2018-12-21T13:50:17.997Z,85.50
2018-12-21T13:52:54.394Z,83.91
2018-12-21T13:55:29.043Z,83.47
2018-12-21T13:58:02.036Z,81.95
2018-12-21T14:00:36.693Z,80.54
2018-12-21T14:03:10.313Z,78.94
2018-12-21T14:05:45.548Z,78.40
2018-12-21T14:08:19.250Z,79.21
2018-12-21T14:10:55.495Z,78.90
2018-12-21T14:13:28.687Z,77.97
2018-12-21T14:16:06.121Z,75.50
2018-12-21T14:18:39.557Z,75.19
2018-12-21T14:21:16.948Z,74.56
2018-12-21T14:23:50.437Z,72.33
2018-12-21T14:26:26.406Z,70.83
2018-12-21T14:29:04.469Z,70.26
2018-12-21T14:31:42.557Z,70.50
2018-12-21T14:34:22.560Z,70.46
2018-12-21T14:36:59.903Z,69.68
2018-12-21T14:39:35.919Z,69.82
2018-12-21T14:42:12.351Z,69.57
2018-12-21T14:44:47.249Z,69.30
2018-12-21T14:47:24.276Z,67.94
2018-12-21T14:49:59.177Z,68.09
2018-12-21T14:52:33.490Z,68.49
2018-12-21T14:55:08.862Z,69.23
2018-12-21T14:57:52.453Z,69.18
2018-12-21T15:00:31.521Z,69.24
2018-12-21T15:03:06.012Z,69.34
2018-12-21T15:05:41.642Z,69.04
2018-12-21T15:08:16.587Z,69.32
2018-12-21T15:10:50.950Z,69.78
2018-12-21T15:13:24.410Z,69.64
2018-12-21T15:15:57.304Z,69.71
2018-12-21T15:18:56.962Z,69.43
2018-12-21T15:21:45.647Z,69.01
2018-12-21T15:24:19.255Z,68.15
2018-12-21T15:26:55.632Z,68.84
2018-12-21T15:29:31.508Z,69.41
2018-12-21T15:32:07.464Z,70.16
2018-12-21T15:34:41.922Z,69.71
2018-12-21T15:37:15.131Z,67.85
2018-12-21T15:39:48.346Z,68.19
2018-12-21T15:42:24.543Z,67.89
2018-12-21T15:44:58.540Z,67.94
2018-12-21T15:47:31.439Z,67.98
2018-12-21T15:50:11.442Z,67.77
2018-12-21T15:52:44.604Z,67.71
2018-12-21T15:55:18.698Z,68.29
2018-12-21T15:58:02.558Z,68.09
2018-12-21T16:00:38.838Z,67.67
2018-12-21T16:03:11.793Z,66.62
2018-12-21T16:05:46.911Z,65.55
2018-12-21T16:08:23.546Z,65.46
2018-12-21T16:10:57.142Z,65.80
2018-12-21T16:13:36.031Z,65.69
2018-12-21T16:16:10.239Z,65.62
2018-12-21T16:18:43.334Z,65.19
2018-12-21T16:21:18.130Z,65.34
2018-12-21T16:23:53.861Z,65.08
2018-12-21T16:26:27.947Z,65.11
2018-12-21T16:29:01.372Z,65.33
2018-12-21T16:31:36.848Z,65.25
2018-12-21T16:34:11.568Z,65.99
2018-12-21T16:36:47.441Z,66.35
2018-12-21T16:39:21.810Z,67.38
2018-12-21T16:41:56.725Z,68.48
2018-12-21T16:44:34.511Z,69.36
2018-12-21T16:47:10.690Z,70.22
2018-12-21T16:49:46.039Z,71.52
2018-12-21T16:52:19.379Z,71.66
2018-12-21T16:54:54.444Z,70.80
2018-12-21T16:57:28.455Z,70.70
2018-12-21T17:00:03.522Z,71.12
2018-12-21T17:02:37.299Z,71.51
2018-12-21T17:05:11.012Z,71.46
2018-12-21T17:07:43.877Z,70.91
2018-12-21T17:10:23.402Z,70.93
2018-12-21T17:12:57.455Z,70.63
2018-12-21T17:15:31.999Z,70.77
2018-12-21T17:18:09.796Z,70.97
2018-12-21T17:20:43.435Z,70.62
2018-12-21T17:23:18.404Z,70.85
2018-12-21T17:25:55.666Z,71.46
2018-12-21T17:28:30.101Z,71.90
2018-12-21T17:31:09.418Z,72.35
2018-12-21T17:33:42.781Z,72.71
2018-12-21T17:36:18.960Z,72.69
2018-12-21T17:38:52.064Z,72.31
2018-12-21T17:41:29.577Z,71.86
2018-12-21T17:44:03.595Z,72.17
2018-12-21T17:46:45.166Z,71.85
2018-12-21T17:49:20.331Z,71.54
2018-12-21T17:52:03.692Z,71.36
2018-12-21T17:54:56.963Z,71.63
2018-12-21T17:57:33.392Z,71.84
2018-12-21T18:00:20.871Z,72.16
2018-12-21T18:02:59.312Z,72.38
2018-12-21T18:05:41.534Z,72.74
2018-12-21T18:08:21.101Z,72.95
2018-12-21T18:11:02.532Z,73.29
2018-12-21T18:13:39.644Z,73.49
2018-12-21T18:16:15.151Z,73.64
2018-12-21T18:18:52.845Z,73.98
2018-12-21T18:21:35.266Z,73.81
2018-12-21T18:24:09.217Z,74.09
2018-12-21T18:26:46.969Z,74.24
2018-12-21T18:29:33.675Z,74.47
2018-12-21T18:32:38.684Z,74.53
2018-12-21T18:35:19.642Z,74.68
2018-12-21T18:38:14.061Z,74.95
2018-12-21T18:40:55.155Z,75.22
2018-12-21T18:43:42.809Z,75.01
2018-12-21T18:46:24.721Z,75.07
2018-12-21T18:49:00.607Z,75.04
2018-12-21T18:51:37.188Z,75.48
2018-12-21T18:54:10.331Z,75.84
2018-12-21T18:57:16.075Z,76.25
2018-12-21T18:59:49.097Z,76.48
2018-12-21T19:02:24.388Z,76.54
2018-12-21T19:04:57.899Z,76.61
2018-12-21T19:07:31.651Z,76.95
2018-12-21T19:10:10.484Z,77.30
2018-12-21T19:12:47.626Z,77.31
2018-12-21T19:15:23.365Z,77.34
2018-12-21T19:18:01.572Z,77.10
2018-12-21T19:20:34.832Z,75.93
2018-12-21T19:23:09.838Z,75.58
2018-12-21T19:25:44.880Z,74.55
2018-12-21T19:28:18.709Z,73.83
2018-12-21T19:30:51.878Z,73.78
2018-12-21T19:33:30.768Z,73.23
2018-12-21T19:36:04.679Z,73.28
2018-12-21T19:38:38.549Z,73.17
2018-12-21T19:41:21.220Z,72.67
2018-12-21T19:43:55.000Z,72.48
2018-12-21T19:46:31.392Z,72.93
2018-12-21T19:49:06.314Z,72.67
2018-12-21T19:51:41.831Z,72.69
2018-12-21T19:54:22.879Z,71.94
2018-12-21T19:57:13.826Z,71.92
2018-12-21T19:59:48.828Z,71.78
2018-12-21T20:02:23.253Z,72.11
2018-12-21T20:04:58.524Z,71.13
2018-12-21T20:07:33.217Z,70.97
2018-12-21T20:10:08.732Z,70.31
2018-12-21T20:12:47.878Z,70.38
2018-12-21T20:15:43.782Z,70.63
2018-12-21T20:18:47.616Z,70.09
2018-12-21T20:21:26.426Z,70.20
2018-12-21T20:24:03.801Z,70.44
2018-12-21T20:26:44.653Z,70.63
2018-12-21T20:29:41.480Z,71.44
2018-12-21T20:32:17.581Z,72.01
2018-12-21T20:34:55.175Z,72.76
2018-12-21T20:37:31.181Z,73.19
2018-12-21T20:40:13.021Z,73.51
2018-12-21T20:42:46.468Z,73.44
2018-12-21T20:45:20.840Z,73.30
2018-12-21T20:47:56.243Z,73.56
2018-12-21T20:50:31.685Z,73.72
2018-12-21T20:53:06.446Z,74.07
2018-12-21T20:55:40.553Z,74.37
2018-12-21T20:58:56.664Z,74.60
2018-12-21T21:01:30.476Z,74.92
2018-12-21T21:04:04.854Z,75.43
2018-12-21T21:06:40.312Z,75.75
2018-12-21T21:09:14.748Z,75.88
2018-12-21T21:11:55.226Z,75.80
2018-12-21T21:14:30.496Z,75.77
2018-12-21T21:17:04.816Z,75.66
2018-12-21T21:19:45.984Z,75.83
2018-12-21T21:22:20.644Z,76.16
2018-12-21T21:24:53.543Z,76.02
2018-12-21T21:27:32.339Z,76.21
2018-12-21T21:30:18.579Z,76.09
2018-12-21T21:32:52.434Z,76.22
2018-12-21T21:35:39.796Z,76.42
2018-12-21T21:38:14.734Z,76.26
2018-12-21T21:40:56.734Z,75.93
2018-12-21T21:43:33.349Z,76.02
2018-12-21T21:46:08.724Z,75.82
2018-12-21T21:48:43.478Z,75.90
2018-12-21T21:51:16.329Z,76.02
2018-12-21T21:53:49.234Z,76.19
2018-12-21T21:56:22.542Z,76.21
2018-12-21T21:58:56.289Z,76.27
2018-12-21T22:01:31.227Z,76.30
2018-12-21T22:04:05.434Z,76.22
2018-12-21T22:06:38.444Z,76.34
2018-12-21T22:09:11.758Z,76.51
2018-12-21T22:11:44.894Z,76.73
2018-12-21T22:14:17.905Z,76.72
2018-12-21T22:16:51.426Z,76.69
2018-12-21T22:19:25.127Z,76.58
2018-12-21T22:22:00.990Z,76.77
2018-12-21T22:24:36.699Z,77.02
2018-12-21T22:27:11.234Z,77.34
2018-12-21T22:29:44.750Z,77.29
2018-12-21T22:32:19.168Z,77.47
2018-12-21T22:34:56.941Z,77.60
2018-12-21T22:37:31.058Z,77.78
2018-12-21T22:40:08.808Z,78.00
2018-12-21T22:42:43.611Z,78.16
2018-12-21T22:45:21.336Z,78.45
2018-12-21T22:47:58.787Z,78.52
2018-12-21T22:50:34.391Z,78.45
2018-12-21T22:53:10.728Z,78.54
2018-12-21T22:55:44.531Z,78.86
2018-12-21T22:58:19.728Z,79.03
2018-12-21T23:00:56.473Z,79.16
2018-12-21T23:03:30.049Z,79.31
2018-12-21T23:06:03.637Z,79.43
2018-12-21T23:08:41.389Z,79.44
2018-12-21T23:11:29.922Z,79.26
2018-12-21T23:14:10.888Z,79.09
2018-12-21T23:16:46.699Z,79.12
2018-12-21T23:19:22.720Z,79.04
2018-12-21T23:21:57.962Z,79.08
2018-12-21T23:24:31.693Z,79.01
2018-12-21T23:27:05.842Z,79.01
2018-12-21T23:29:44.821Z,79.06
2018-12-21T23:32:17.869Z,79.01
2018-12-21T23:34:54.377Z,79.07
2018-12-21T23:37:27.897Z,79.16
2018-12-21T23:40:02.004Z,79.11
2018-12-21T23:42:35.138Z,79.21
2018-12-21T23:45:09.733Z,79.17
2018-12-21T23:47:45.673Z,79.23
2018-12-21T23:50:18.609Z,79.36
2018-12-21T23:52:56.348Z,79.53
2018-12-21T23:55:29.809Z,79.79
2018-12-21T23:58:13.430Z,80.03
